createdAt,value
2023-03-10T00:01:12.523Z,98853.25
2023-03-10T00:03:40.126Z,98870.94
2023-03-10T00:06:08.184Z,98868.34
2023-03-10T00:08:35.642Z,98876.56
2023-03-10T00:11:03.011Z,98871.44
2023-03-10T00:13:30.390Z,98865.75
2023-03-10T00:15:57.740Z,98859.53
2023-03-10T00:18:25.090Z,98876.81
2023-03-10T00:20:53.302Z,98880.97
2023-03-10T00:23:21.000Z,98889.78
2023-03-10T00:26:06.409Z,98883.78
2023-03-10T00:28:33.814Z,98883.78
2023-03-10T00:31:02.951Z,98886.13
2023-03-10T00:33:33.865Z,98884.63
2023-03-10T00:36:08.463Z,98869.91
2023-03-10T00:38:36.164Z,98890.72
2023-03-10T00:41:05.330Z,98880.44
2023-03-10T00:43:32.629Z,98886.53
2023-03-10T00:46:00.011Z,98877.63
2023-03-10T00:48:27.529Z,98877.81
2023-03-10T00:50:54.931Z,98870.59
2023-03-10T00:53:22.333Z,98858.06
2023-03-10T00:55:59.336Z,98875.28
2023-03-10T00:58:27.541Z,98872.25
2023-03-10T01:00:54.912Z,98872.31
2023-03-10T01:03:22.712Z,98891.31
2023-03-10T01:05:51.138Z,98866.63
2023-03-10T01:08:18.449Z,98872.34
2023-03-10T01:10:45.925Z,98863.09
2023-03-10T01:13:13.482Z,98844.53
2023-03-10T01:15:40.968Z,98838.00
2023-03-10T01:18:08.285Z,98849.38
2023-03-10T01:20:35.591Z,98834.97
2023-03-10T01:23:04.216Z,98837.28
2023-03-10T01:25:31.505Z,98850.25
2023-03-10T01:27:58.829Z,98845.53
2023-03-10T01:30:26.114Z,98846.31
2023-03-10T01:32:53.530Z,98839.50
2023-03-10T01:35:20.892Z,98829.56
2023-03-10T01:37:48.644Z,98843.50
2023-03-10T01:40:18.664Z,98827.94
2023-03-10T01:42:46.125Z,98839.25
2023-03-10T01:45:16.917Z,98850.94
2023-03-10T01:47:44.532Z,98840.44
2023-03-10T01:50:14.022Z,98845.97
2023-03-10T01:52:42.539Z,98836.19
2023-03-10T01:55:20.604Z,98839.81
2023-03-10T01:57:52.687Z,98855.56
2023-03-10T02:00:20.876Z,98853.22
2023-03-10T02:03:03.220Z,98858.38
2023-03-10T02:05:30.533Z,98845.31
2023-03-10T02:07:58.105Z,98842.97
2023-03-10T02:10:25.802Z,98851.81
2023-03-10T02:12:53.140Z,98855.75
2023-03-10T02:15:20.941Z,98853.31
2023-03-10T02:17:48.370Z,98834.59
2023-03-10T02:20:34.447Z,98856.78
2023-03-10T02:23:01.754Z,98851.09
2023-03-10T02:25:51.427Z,98846.19
2023-03-10T02:28:20.960Z,98827.47
2023-03-10T02:30:49.383Z,98842.75
2023-03-10T02:33:19.016Z,98838.59
2023-03-10T02:35:47.042Z,98844.19
2023-03-10T02:38:20.283Z,98850.63
2023-03-10T02:40:49.287Z,98855.97
2023-03-10T02:43:26.318Z,98843.59
2023-03-10T02:46:02.925Z,98839.25
2023-03-10T02:48:36.251Z,98833.91
2023-03-10T02:51:09.282Z,98831.66
2023-03-10T02:53:36.866Z,98828.66
2023-03-10T02:56:04.273Z,98834.59
2023-03-10T02:58:34.442Z,98829.88
2023-03-10T03:01:05.079Z,98831.44
2023-03-10T03:03:35.313Z,98825.56
2023-03-10T03:06:02.652Z,98822.97
2023-03-10T03:08:30.334Z,98811.59
2023-03-10T03:10:57.732Z,98834.00
2023-03-10T03:13:25.074Z,98823.69
2023-03-10T03:15:52.450Z,98825.38
2023-03-10T03:18:19.987Z,98813.75
2023-03-10T03:20:47.394Z,98806.63
2023-03-10T03:23:14.850Z,98808.38
2023-03-10T03:25:42.532Z,98818.81
2023-03-10T03:28:12.406Z,98815.53
2023-03-10T03:30:40.858Z,98819.31
2023-03-10T03:33:08.380Z,98813.09
2023-03-10T03:35:37.376Z,98816.13
2023-03-10T03:38:06.398Z,98799.97
2023-03-10T03:40:34.220Z,98798.28
2023-03-10T03:43:03.051Z,98798.19
2023-03-10T03:45:31.679Z,98804.78
2023-03-10T03:47:59.841Z,98815.16
2023-03-10T03:50:27.820Z,98815.78
2023-03-10T03:52:59.648Z,98811.00
2023-03-10T03:55:30.080Z,98810.00
2023-03-10T03:57:58.096Z,98794.16
2023-03-10T04:00:25.587Z,98807.75
2023-03-10T04:03:00.472Z,98804.75
2023-03-10T04:05:29.212Z,98801.00
2023-03-10T04:07:56.717Z,98785.28
2023-03-10T04:10:27.105Z,98791.63
2023-03-10T04:12:54.687Z,98787.03
2023-03-10T04:15:23.599Z,98804.44
2023-03-10T04:17:51.293Z,98784.13
2023-03-10T04:20:18.947Z,98799.50
2023-03-10T04:22:49.650Z,98788.25
2023-03-10T04:25:18.335Z,98780.44
2023-03-10T04:27:46.529Z,98778.75
2023-03-10T04:30:14.552Z,98776.75
2023-03-10T04:32:47.904Z,98770.06
2023-03-10T04:35:16.784Z,98770.06
2023-03-10T04:37:44.994Z,98773.81
2023-03-10T04:40:13.867Z,98778.97
2023-03-10T04:42:42.227Z,98782.44
2023-03-10T04:45:10.305Z,98774.06
2023-03-10T04:47:38.244Z,98773.81
2023-03-10T04:50:06.942Z,98776.47
2023-03-10T04:52:34.627Z,98796.78
2023-03-10T04:55:02.086Z,98789.84
2023-03-10T04:57:29.784Z,98786.03
2023-03-10T04:59:57.357Z,98781.56
2023-03-10T05:02:24.784Z,98767.38
2023-03-10T05:04:52.517Z,98776.75
2023-03-10T05:07:21.508Z,98779.16
2023-03-10T05:09:50.222Z,98781.59
2023-03-10T05:12:17.682Z,98760.41
2023-03-10T05:14:45.027Z,98766.47
2023-03-10T05:17:12.582Z,98760.16
2023-03-10T05:19:39.986Z,98769.56
2023-03-10T05:22:08.130Z,98778.69
2023-03-10T05:24:36.648Z,98795.88
2023-03-10T05:27:04.071Z,98790.84
2023-03-10T05:29:32.103Z,98806.06
2023-03-10T05:32:07.260Z,98799.66
2023-03-10T05:34:38.129Z,98781.72
2023-03-10T05:37:06.260Z,98783.47
2023-03-10T05:39:34.303Z,98790.44
2023-03-10T05:42:05.388Z,98791.09
2023-03-10T05:44:34.896Z,98802.47
2023-03-10T05:47:04.334Z,98796.28
2023-03-10T05:49:31.980Z,98802.41
2023-03-10T05:51:59.430Z,98790.19
2023-03-10T05:54:26.738Z,98807.34
2023-03-10T05:56:54.150Z,98799.69
2023-03-10T05:59:24.615Z,98784.84
2023-03-10T06:01:52.791Z,98798.94
2023-03-10T06:04:20.418Z,98805.91
2023-03-10T06:06:47.871Z,98800.19
2023-03-10T06:09:15.152Z,98792.75
2023-03-10T06:11:42.444Z,98791.97
2023-03-10T06:14:09.949Z,98781.81
2023-03-10T06:16:37.316Z,98799.13
2023-03-10T06:19:04.683Z,98793.00
2023-03-10T06:21:32.024Z,98793.69
2023-03-10T06:24:00.524Z,98789.00
2023-03-10T06:26:29.783Z,98795.06
2023-03-10T06:28:57.103Z,98774.47
2023-03-10T06:31:24.982Z,98784.47
2023-03-10T06:33:52.443Z,98784.03
2023-03-10T06:36:20.467Z,98781.78
2023-03-10T06:38:48.067Z,98804.09
2023-03-10T06:41:16.421Z,98800.00
2023-03-10T06:43:43.863Z,98780.88
2023-03-10T06:46:11.519Z,98760.78
2023-03-10T06:48:39.090Z,98779.75
2023-03-10T06:51:07.908Z,98778.53
2023-03-10T06:53:47.514Z,98784.88
2023-03-10T06:56:16.899Z,98781.75
2023-03-10T06:58:44.283Z,98775.28
2023-03-10T07:01:31.881Z,98740.22
2023-03-10T07:03:59.950Z,98773.81
2023-03-10T07:06:27.355Z,98765.47
2023-03-10T07:08:54.802Z,98760.91
2023-03-10T07:11:22.551Z,98739.50
2023-03-10T07:13:49.872Z,98750.44
2023-03-10T07:16:17.314Z,98733.44
2023-03-10T07:18:44.738Z,98747.00
2023-03-10T07:21:14.043Z,98745.59
2023-03-10T07:23:41.409Z,98740.91
2023-03-10T07:26:09.174Z,98737.03
2023-03-10T07:28:37.027Z,98743.19
2023-03-10T07:31:05.660Z,98729.38
2023-03-10T07:33:33.182Z,98740.50
2023-03-10T07:36:07.277Z,98699.59
2023-03-10T07:38:34.930Z,98733.78
2023-03-10T07:41:06.528Z,98745.97
2023-03-10T07:43:33.761Z,98727.56
2023-03-10T07:46:05.044Z,98720.53
2023-03-10T07:48:32.424Z,98718.75
2023-03-10T07:50:59.789Z,98709.25
2023-03-10T07:53:27.122Z,98708.72
2023-03-10T07:55:54.567Z,98701.88
2023-03-10T07:58:22.034Z,98688.81
2023-03-10T08:00:56.636Z,98685.25
2023-03-10T08:03:24.749Z,98676.53
2023-03-10T08:05:52.234Z,98673.41
2023-03-10T08:08:19.658Z,98685.69
2023-03-10T08:10:46.944Z,98660.13
2023-03-10T08:13:14.565Z,98682.25
2023-03-10T08:15:42.394Z,98666.97
2023-03-10T08:18:09.866Z,98639.09
2023-03-10T08:20:37.204Z,98672.41
2023-03-10T08:23:04.924Z,98660.28
2023-03-10T08:25:32.258Z,98656.31
2023-03-10T08:27:59.561Z,98670.03
2023-03-10T08:30:26.862Z,98668.00
2023-03-10T08:32:54.207Z,98678.22
2023-03-10T08:35:21.583Z,98659.38
2023-03-10T08:37:48.852Z,98672.94
2023-03-10T08:40:16.341Z,98668.50
2023-03-10T08:42:45.062Z,98663.75
2023-03-10T08:45:13.562Z,98660.31
2023-03-10T08:47:47.583Z,98675.16
2023-03-10T08:50:20.801Z,98663.09
2023-03-10T09:00:33.074Z,98636.22
2023-03-10T09:18:00.304Z,98656.06
2023-03-10T09:21:35.644Z,98618.91
2023-03-10T09:35:52.461Z,98612.00
2023-03-10T09:38:25.577Z,98647.97
2023-03-10T09:41:13.648Z,98617.03
2023-03-10T09:43:43.038Z,98641.00
2023-03-10T09:46:19.718Z,98634.00
2023-03-10T09:48:53.308Z,98619.28
2023-03-10T09:51:25.155Z,98639.31
2023-03-10T09:54:27.809Z,98636.22
2023-03-10T09:56:56.463Z,98627.34
2023-03-10T09:59:37.875Z,98615.31
2023-03-10T10:02:29.890Z,98617.47
2023-03-10T10:04:58.720Z,98605.16
2023-03-10T10:07:27.799Z,98598.81
2023-03-10T10:10:01.092Z,98604.94
2023-03-10T10:12:28.373Z,98576.97
2023-03-10T10:15:01.520Z,98585.34
2023-03-10T10:17:52.910Z,98564.41
2023-03-10T10:20:39.421Z,98554.22
2023-03-10T10:23:25.730Z,98544.09
2023-03-10T10:25:54.748Z,98547.81
2023-03-10T10:28:27.112Z,98556.97
2023-03-10T10:31:09.750Z,98551.25
2023-03-10T10:33:55.950Z,98549.00
2023-03-10T10:36:28.426Z,98533.81
2023-03-10T10:38:55.805Z,98526.06
2023-03-10T10:41:29.695Z,98511.56
2023-03-10T10:44:16.271Z,98507.84
2023-03-10T10:46:54.585Z,98515.50
2023-03-10T10:49:29.102Z,98489.59
2023-03-10T10:52:04.021Z,98515.81
2023-03-10T10:54:41.558Z,98494.06
2023-03-10T10:57:22.821Z,98489.22
2023-03-10T10:59:50.150Z,98506.97
2023-03-10T11:02:32.411Z,98487.97
2023-03-10T11:05:11.898Z,98495.75
2023-03-10T11:07:40.510Z,98488.41
2023-03-10T11:10:18.834Z,98496.34
2023-03-10T11:13:16.061Z,98478.06
2023-03-10T11:15:51.645Z,98459.72
2023-03-10T11:18:52.102Z,98455.41
2023-03-10T11:21:26.317Z,98469.75
2023-03-10T11:23:55.868Z,98456.34
2023-03-10T11:26:33.623Z,98437.00
2023-03-10T11:29:42.988Z,98458.19
2023-03-10T11:32:20.299Z,98436.28
2023-03-10T11:34:51.787Z,98441.53
2023-03-10T11:37:30.758Z,98452.47
2023-03-10T11:40:19.813Z,98459.28
2023-03-10T11:42:59.252Z,98440.88
2023-03-10T11:45:32.216Z,98440.41
2023-03-10T11:47:59.396Z,98433.22
2023-03-10T11:50:34.693Z,98425.91
2023-03-10T11:53:22.116Z,98404.56
2023-03-10T11:55:49.799Z,98404.94
2023-03-10T11:58:26.303Z,98404.13
2023-03-10T12:00:54.030Z,98377.25
2023-03-10T12:03:30.967Z,98372.41
2023-03-10T12:05:59.030Z,98394.91
2023-03-10T12:08:29.762Z,98390.03
2023-03-10T12:10:57.058Z,98373.38
2023-03-10T12:13:27.100Z,98357.91
2023-03-10T12:15:56.990Z,98349.94
2023-03-10T12:18:26.776Z,98368.22
2023-03-10T12:21:14.948Z,98356.22
2023-03-10T12:24:01.381Z,98350.19
2023-03-10T12:26:41.010Z,98357.91
2023-03-10T12:29:20.425Z,98338.66
2023-03-10T12:31:49.662Z,98318.47
2023-03-10T12:34:25.966Z,98332.91
2023-03-10T12:37:13.659Z,98330.19
2023-03-10T12:39:42.119Z,98318.41
2023-03-10T12:42:21.471Z,98325.56
2023-03-10T12:45:13.774Z,98312.19
2023-03-10T12:47:43.723Z,98317.22
2023-03-10T12:50:29.673Z,98309.84
2023-03-10T12:53:07.740Z,98286.69
2023-03-10T12:55:35.044Z,98265.31
2023-03-10T12:58:20.119Z,98291.94
2023-03-10T13:01:15.624Z,98298.44
2023-03-10T13:03:45.946Z,98286.28
2023-03-10T13:06:13.314Z,98284.13
2023-03-10T13:08:51.265Z,98256.34
2023-03-10T13:11:18.480Z,98275.75
2023-03-10T13:13:51.739Z,98268.56
2023-03-10T13:16:19.971Z,98260.75
2023-03-10T13:18:48.924Z,98269.22
2023-03-10T13:21:28.643Z,98260.78
2023-03-10T13:23:57.013Z,98248.66
2023-03-10T13:26:25.338Z,98247.72
2023-03-10T13:29:03.033Z,98240.75
2023-03-10T13:31:31.227Z,98235.13
2023-03-10T13:34:08.966Z,98239.94
2023-03-10T13:36:37.105Z,98216.97
2023-03-10T13:39:15.698Z,98222.47
2023-03-10T13:41:47.279Z,98213.63
2023-03-10T13:44:19.299Z,98211.78
2023-03-10T13:46:50.925Z,98207.53
2023-03-10T13:49:24.785Z,98212.50
2023-03-10T13:51:59.628Z,98158.28
2023-03-10T13:54:39.121Z,98205.25
2023-03-10T13:57:16.634Z,98205.94
2023-03-10T13:59:43.938Z,98211.81
2023-03-10T14:02:27.476Z,98187.75
2023-03-10T14:04:55.000Z,98179.13
2023-03-10T14:07:24.072Z,98185.09
2023-03-10T14:10:03.423Z,98183.44
2023-03-10T14:12:49.889Z,98172.84
2023-03-10T14:15:17.054Z,98183.75
2023-03-10T14:17:44.985Z,98169.59
2023-03-10T14:20:13.638Z,98166.94
2023-03-10T14:22:43.672Z,98174.59
2023-03-10T14:25:16.195Z,98163.47
2023-03-10T14:27:48.688Z,98177.66
2023-03-10T14:30:18.081Z,98157.50
2023-03-10T14:32:45.507Z,98155.81
2023-03-10T14:35:12.960Z,98153.06
2023-03-10T14:37:40.341Z,98147.44
2023-03-10T14:40:08.132Z,98148.59
2023-03-10T14:42:35.445Z,98157.97
2023-03-10T14:45:30.676Z,98165.31
2023-03-10T14:47:58.607Z,98137.59
2023-03-10T14:50:26.272Z,98150.28
2023-03-10T14:52:53.580Z,98154.28
2023-03-10T14:55:21.118Z,98144.75
2023-03-10T14:57:57.048Z,98137.19
2023-03-10T15:00:24.625Z,98151.31
2023-03-10T15:02:51.880Z,98153.06
2023-03-10T15:05:21.044Z,98139.81
2023-03-10T15:07:50.907Z,98134.75
2023-03-10T15:10:20.492Z,98109.47
2023-03-10T15:12:51.501Z,98137.50
2023-03-10T15:15:23.061Z,98134.09
2023-03-10T15:17:50.397Z,98128.38
2023-03-10T15:20:22.417Z,98111.00
2023-03-10T15:22:49.908Z,98106.34
2023-03-10T15:25:19.078Z,98100.47
2023-03-10T15:27:46.791Z,98114.69
2023-03-10T15:30:24.750Z,98102.16
2023-03-10T15:32:52.301Z,98101.94
2023-03-10T15:35:21.717Z,98109.69
2023-03-10T15:37:49.525Z,98120.28
2023-03-10T15:40:21.508Z,98116.63
2023-03-10T15:42:48.984Z,98109.19
2023-03-10T15:45:18.286Z,98094.38
2023-03-10T15:47:46.042Z,98090.88
2023-03-10T15:50:14.020Z,98083.31
2023-03-10T15:52:46.576Z,98065.75
2023-03-10T15:55:15.044Z,98084.13
2023-03-10T15:57:43.517Z,98077.66
2023-03-10T16:00:12.340Z,98069.47
2023-03-10T16:02:39.707Z,98082.81
2023-03-10T16:05:07.260Z,98082.94
2023-03-10T16:07:34.752Z,98081.84
2023-03-10T16:10:02.063Z,98064.63
2023-03-10T16:12:29.834Z,98073.09
2023-03-10T16:14:57.550Z,98097.94
2023-03-10T16:17:28.461Z,98090.16
2023-03-10T16:19:55.844Z,98091.84
2023-03-10T16:22:23.462Z,98078.13
2023-03-10T16:24:53.984Z,98052.09
2023-03-10T16:27:24.420Z,98082.41
2023-03-10T16:29:51.722Z,98081.69
2023-03-10T16:32:19.822Z,98082.53
2023-03-10T16:34:47.356Z,98049.09
2023-03-10T16:37:14.700Z,98066.38
2023-03-10T16:39:43.419Z,98074.81
2023-03-10T16:42:10.713Z,98071.16
2023-03-10T16:44:38.046Z,98075.47
2023-03-10T16:47:05.463Z,98078.53
2023-03-10T16:49:33.133Z,98076.63
2023-03-10T16:52:00.426Z,98073.16
2023-03-10T16:54:27.784Z,98076.25
2023-03-10T16:56:57.113Z,98082.41
2023-03-10T16:59:24.840Z,98085.09
2023-03-10T17:01:52.316Z,98082.41
2023-03-10T17:04:19.913Z,98085.78
2023-03-10T17:06:47.645Z,98090.88
2023-03-10T17:09:15.268Z,98077.75
2023-03-10T17:11:46.990Z,98083.88
2023-03-10T17:14:15.270Z,98090.81
2023-03-10T17:16:42.954Z,98091.69
2023-03-10T17:19:20.634Z,98097.03
2023-03-10T17:21:49.124Z,98093.22
2023-03-10T17:24:17.673Z,98090.91
2023-03-10T17:26:45.193Z,98093.53
2023-03-10T17:29:12.652Z,98090.09
2023-03-10T17:31:40.006Z,98083.19
2023-03-10T17:34:08.546Z,98072.34
2023-03-10T17:36:36.000Z,98081.97
2023-03-10T17:39:04.677Z,98089.31
2023-03-10T17:41:32.720Z,98082.81
2023-03-10T17:44:00.041Z,98073.84
2023-03-10T17:46:29.069Z,98078.53
2023-03-10T17:48:57.213Z,98073.94
2023-03-10T17:51:28.956Z,98074.00
2023-03-10T17:53:57.201Z,98079.75
2023-03-10T17:56:24.903Z,98066.31
2023-03-10T17:58:55.560Z,98069.44
2023-03-10T18:01:27.076Z,98076.25
2023-03-10T18:03:56.069Z,98069.38
2023-03-10T18:06:27.986Z,98064.69
2023-03-10T18:08:56.626Z,98065.50
2023-03-10T18:11:25.656Z,98065.53
2023-03-10T18:13:53.096Z,98060.91
2023-03-10T18:16:22.349Z,98065.56
2023-03-10T18:18:49.733Z,98066.78
2023-03-10T18:21:17.268Z,98058.59
2023-03-10T18:23:44.741Z,98050.25
2023-03-10T18:26:13.624Z,98045.22
2023-03-10T18:28:40.964Z,98045.59
2023-03-10T18:31:09.496Z,98029.84
2023-03-10T18:33:37.209Z,98027.94
2023-03-10T18:36:06.320Z,98019.09
2023-03-10T18:38:33.841Z,98023.31
2023-03-10T18:41:01.856Z,98024.88
2023-03-10T18:43:29.344Z,98009.78
2023-03-10T18:45:56.600Z,98001.75
2023-03-10T18:48:26.963Z,98020.59
2023-03-10T18:50:54.950Z,97993.75
2023-03-10T18:53:23.205Z,98026.03
2023-03-10T18:55:50.498Z,98027.59
2023-03-10T18:58:17.781Z,98025.69
2023-03-10T19:00:45.196Z,98024.19
2023-03-10T19:03:13.802Z,98011.84
2023-03-10T19:05:41.256Z,98001.78
2023-03-10T19:08:10.339Z,98011.06
2023-03-10T19:10:39.345Z,98015.25
2023-03-10T19:13:07.640Z,98022.59
2023-03-10T19:15:36.594Z,98021.84
2023-03-10T19:18:04.372Z,98008.84
2023-03-10T19:20:31.647Z,98025.75
2023-03-10T19:22:58.951Z,98025.78
2023-03-10T19:25:26.240Z,98044.31
2023-03-10T19:27:53.548Z,98027.00
2023-03-10T19:30:21.069Z,98035.88
2023-03-10T19:32:48.558Z,98020.91
2023-03-10T19:35:16.162Z,98031.34
2023-03-10T19:37:43.689Z,98019.44
2023-03-10T19:40:15.746Z,98034.16
2023-03-10T19:42:43.062Z,98022.22
2023-03-10T19:45:11.621Z,98029.97
2023-03-10T19:47:38.993Z,98016.84
2023-03-10T19:50:08.897Z,98033.81
2023-03-10T19:52:38.894Z,98016.91
2023-03-10T19:55:09.592Z,98010.72
2023-03-10T19:57:36.959Z,98010.38
2023-03-10T20:00:05.943Z,98008.84
2023-03-10T20:02:33.397Z,98010.72
2023-03-10T20:05:00.703Z,97986.94
2023-03-10T20:07:28.010Z,98013.91
2023-03-10T20:09:55.298Z,97996.22
2023-03-10T20:12:22.722Z,98011.59
2023-03-10T20:14:50.008Z,98004.72
2023-03-10T20:17:19.247Z,98021.31
2023-03-10T20:19:46.661Z,98005.19
2023-03-10T20:22:18.498Z,98012.84
2023-03-10T20:24:46.140Z,97997.84
2023-03-10T20:27:13.473Z,98010.16
2023-03-10T20:29:41.291Z,97984.38
2023-03-10T20:32:08.811Z,97964.03
2023-03-10T20:34:36.213Z,97995.56
2023-03-10T20:37:03.516Z,97986.34
2023-03-10T20:39:30.810Z,97982.13
2023-03-10T20:41:58.106Z,97992.50
2023-03-10T20:44:25.427Z,97987.50
2023-03-10T20:46:52.749Z,97977.88
2023-03-10T20:49:20.314Z,97967.88
2023-03-10T20:51:47.663Z,97964.00
2023-03-10T20:54:18.225Z,97971.72
2023-03-10T20:56:45.463Z,97960.19
2023-03-10T20:59:12.784Z,97958.25
2023-03-10T21:01:42.497Z,97969.38
2023-03-10T21:04:10.044Z,97952.03
2023-03-10T21:06:37.531Z,97956.28
2023-03-10T21:09:05.981Z,97949.34
2023-03-10T21:11:34.245Z,97966.69
2023-03-10T21:14:01.639Z,97964.34
2023-03-10T21:16:29.050Z,97942.81
2023-03-10T21:18:56.394Z,97947.03
2023-03-10T21:21:23.693Z,97947.41
2023-03-10T21:23:51.062Z,97957.06
2023-03-10T21:26:19.791Z,97933.19
2023-03-10T21:28:47.236Z,97933.13
2023-03-10T21:31:14.902Z,97938.16
2023-03-10T21:33:42.226Z,97913.16
2023-03-10T21:36:17.613Z,97919.69
2023-03-10T21:38:48.673Z,97917.75
2023-03-10T21:41:17.496Z,97922.00
2023-03-10T21:43:44.840Z,97916.28
2023-03-10T21:46:12.670Z,97929.34
2023-03-10T21:48:40.021Z,97902.41
2023-03-10T21:51:09.858Z,97905.47
2023-03-10T21:53:37.229Z,97911.63
2023-03-10T21:56:04.817Z,97900.09
2023-03-10T21:58:32.178Z,97905.44
2023-03-10T22:00:59.531Z,97897.75
2023-03-10T22:03:27.457Z,97890.06
2023-03-10T22:05:54.756Z,97905.47
2023-03-10T22:08:22.054Z,97891.59
2023-03-10T22:10:49.346Z,97889.25
2023-03-10T22:13:16.611Z,97895.00
2023-03-10T22:15:44.070Z,97904.66
2023-03-10T22:18:11.384Z,97891.97
2023-03-10T22:20:38.649Z,97872.28
2023-03-10T22:23:06.017Z,97876.91
2023-03-10T22:25:34.974Z,97869.94
2023-03-10T22:28:02.384Z,97874.94
2023-03-10T22:30:29.928Z,97862.28
2023-03-10T22:32:57.573Z,97873.78
2023-03-10T22:35:24.887Z,97851.53
2023-03-10T22:37:52.201Z,97846.13
2023-03-10T22:40:23.138Z,97862.63
2023-03-10T22:42:50.475Z,97863.41
2023-03-10T22:45:22.006Z,97858.78
2023-03-10T22:47:49.505Z,97842.25
2023-03-10T22:50:19.328Z,97843.81
2023-03-10T22:52:46.653Z,97853.44
2023-03-10T22:55:15.243Z,97828.41
2023-03-10T22:57:42.603Z,97850.34
2023-03-10T23:00:14.854Z,97838.13
2023-03-10T23:02:42.273Z,97813.88
2023-03-10T23:05:10.057Z,97838.81
2023-03-10T23:07:37.340Z,97830.81
2023-03-10T23:10:08.897Z,97836.56
2023-03-10T23:12:36.165Z,97837.72
2023-03-10T23:15:07.078Z,97816.22
2023-03-10T23:17:36.672Z,97831.63
2023-03-10T23:20:04.499Z,97847.00
2023-03-10T23:22:32.275Z,97845.47
2023-03-10T23:24:59.619Z,97853.53
2023-03-10T23:27:26.966Z,97855.78
2023-03-10T23:29:54.282Z,97860.09
2023-03-10T23:32:21.602Z,97845.47
2023-03-10T23:34:48.894Z,97866.63
2023-03-10T23:37:16.182Z,97871.25
2023-03-10T23:39:44.703Z,97853.94
2023-03-10T23:42:12.067Z,97851.63
2023-03-10T23:44:39.325Z,97863.94
2023-03-10T23:47:06.899Z,97861.63
2023-03-10T23:49:34.141Z,97858.13
2023-03-10T23:52:01.952Z,97870.06
2023-03-10T23:54:30.274Z,97869.31
2023-03-10T23:56:57.577Z,97846.25
2023-03-10T23:59:24.966Z,97854.66
